Time;durP1;ratioP1;P1;durP2;ratioP2;P2;SDS_P1;SDS_P2;PMS_P1;PMS_P2;Temp;Humidity;BMP_temperature;BMP_pressure;BME280_temperature;BME280_humidity;BME280_pressure;Samples;Min_cycle;Max_cycle;Signal;HPM_P1;HPM_P2
2022/11/20 07:42:09;;;;;;;21.33;11.00;;;-1.50;99.90;;;;;;6311284;22;20021;-87
2022/11/20 10:17:31;;;;;;;21.77;12.60;;;1.90;99.90;;;;;;6278208;22;20062;-89
2022/11/20 10:20:03;;;;;;;20.87;11.23;;;2.00;99.90;;;;;;6250859;22;20015;-88
2022/11/20 10:23:12;;;;;;;21.93;12.20;;;1.10;99.90;;;;;;6263444;22;20098;-88
2022/11/20 10:26:15;;;;;;;17.73;10.70;;;1.60;99.90;;;;;;6258737;22;20026;-88
2022/11/20 10:29:19;;;;;;;19.37;10.77;;;1.30;99.90;;;;;;6293862;22;20451;-89
2022/11/20 10:32:27;;;;;;;18.17;10.27;;;1.90;99.90;;;;;;6281207;22;20059;-88
2022/11/20 10:35:33;;;;;;;16.00;8.53;;;1.90;99.90;;;;;;6167728;22;20017;-89
2022/11/20 10:38:38;;;;;;;13.97;7.90;;;1.90;99.90;;;;;;6294827;22;20067;-88
2022/11/20 10:41:25;;;;;;;14.20;7.20;;;1.60;99.90;;;;;;6249236;22;20020;-87
2022/11/20 10:47:40;;;;;;;13.57;6.70;;;2.20;99.90;;;;;;6251267;22;20024;-87
2022/11/20 10:50:24;;;;;;;13.85;6.75;;;2.10;99.90;;;;;;6248998;22;20047;-86
2022/11/20 10:53:31;;;;;;;13.50;7.00;;;2.50;99.90;;;;;;6277126;22;20050;-87
2022/11/20 10:56:25;;;;;;;12.33;6.30;;;3.00;99.90;;;;;;6252446;22;20023;-87
2022/11/20 11:06:00;;;;;;;14.50;7.30;;;2.00;99.90;;;;;;6270539;22;20024;-87
2022/11/20 11:09:14;;;;;;;16.03;7.70;;;2.80;99.90;;;;;;6261824;22;20059;-86
2022/11/20 11:11:41;;;;;;;12.93;6.90;;;1.90;99.90;;;;;;6291870;22;20023;-86
2022/11/20 11:14:53;;;;;;;14.73;7.37;;;2.10;99.90;;;;;;6255530;22;20095;-87
2022/11/20 11:17:53;;;;;;;15.50;8.40;;;1.30;99.90;;;;;;6273977;22;20018;-87
2022/11/20 11:20:28;;;;;;;14.00;7.70;;;4.70;99.90;;;;;;6275622;22;20082;-86
2022/11/20 11:26:15;;;;;;;14.37;6.97;;;2.50;99.90;;;;;;6274247;22;20444;-87
2022/11/20 11:29:17;;;;;;;13.43;7.03;;;1.70;99.90;;;;;;6276069;22;20447;-87
2022/11/20 11:32:26;;;;;;;13.67;6.40;;;1.80;99.90;;;;;;6248029;22;20523;-86
2022/11/20 11:35:49;;;;;;;;;;;;;;;;;;;;;
2022/11/20 11:38:57;;;;;;;13.03;6.43;;;1.90;99.90;;;;;;6273935;22;20448;-87
2022/11/20 11:48:23;;;;;;;13.53;7.07;;;2.50;99.90;;;;;;6288012;22;20016;-89
2022/11/20 11:51:09;;;;;;;13.43;7.17;;;1.40;99.90;;;;;;6156579;23;20013;-87
2022/11/20 11:54:59;;;;;;;13.48;7.25;;;2.50;99.90;;;;;;6189145;22;20017;-86
2022/11/20 11:58:34;;;;;;;16.00;7.83;;;2.10;99.90;;;;;;6170521;23;20074;-87
2022/11/20 12:02:08;;;;;;;15.13;8.03;;;1.60;99.90;;;;;;6192039;23;20437;-87
2022/11/20 12:05:03;;;;;;;14.67;7.90;;;2.90;99.90;;;;;;6188277;23;20048;-87
2022/11/20 12:08:05;;;;;;;14.95;7.88;;;2.70;99.90;;;;;;6137169;23;20017;-88
2022/11/20 12:10:59;;;;;;;17.83;9.50;;;2.10;99.90;;;;;;6211899;23;20398;-87
2022/11/20 12:14:04;;;;;;;16.35;9.05;;;1.60;99.90;;;;;;6215049;23;20017;-86
2022/11/20 12:17:21;;;;;;;14.23;7.32;;;2.20;99.90;;;;;;6248062;23;20012;-87
2022/11/20 12:19:55;;;;;;;14.07;7.73;;;3.70;99.90;;;;;;6118920;23;20527;-89
2022/11/20 12:22:57;;;;;;;19.63;8.07;;;3.30;99.90;;;;;;6252153;23;20502;-88
2022/11/20 12:26:07;;;;;;;14.80;7.47;;;3.30;99.90;;;;;;6218909;23;20016;-87
2022/11/20 12:29:41;;;;;;;13.40;6.90;;;3.90;99.90;;;;;;6167471;23;20050;-86
2022/11/20 12:36:00;;;;;;;14.53;7.57;;;3.30;99.90;;;;;;6246743;23;20020;-86
2022/11/20 12:39:03;;;;;;;14.13;7.80;;;4.30;99.90;;;;;;6247906;23;20016;-87
2022/11/20 12:45:40;;;;;;;28.37;14.17;;;4.40;99.90;;;;;;6220138;23;20103;-87
2022/11/20 12:48:45;;;;;;;18.47;9.67;;;3.90;99.90;;;;;;6220016;23;20020;-87
2022/11/20 12:54:02;;;;;;;14.87;8.20;;;3.20;99.90;;;;;;6304625;22;20462;-87
2022/11/20 12:56:50;;;;;;;16.23;8.97;;;2.20;99.90;;;;;;6279995;22;20339;-87
2022/11/20 12:59:50;;;;;;;17.67;8.80;;;2.50;99.90;;;;;;6255609;22;20065;-88
2022/11/20 13:02:37;;;;;;;16.67;8.60;;;2.70;99.90;;;;;;6308462;22;20475;-87
2022/11/20 13:05:42;;;;;;;15.97;8.50;;;2.90;99.90;;;;;;6280510;22;20015;-88
2022/11/20 13:08:28;;;;;;;17.33;8.50;;;3.10;99.90;;;;;;6280553;22;20073;-86
2022/11/20 13:11:31;;;;;;;16.07;8.87;;;2.60;99.90;;;;;;6279648;22;20022;-86
2022/11/20 13:14:49;;;;;;;16.50;8.47;;;2.90;99.90;;;;;;6308818;22;20042;-85
2022/11/20 13:17:38;;;;;;;19.53;10.60;;;2.80;99.90;;;;;;6280129;22;20019;-86
2022/11/20 13:20:24;;;;;;;15.23;8.77;;;2.00;99.90;;;;;;6308749;22;20015;-86
2022/11/20 13:23:11;;;;;;;17.90;9.80;;;4.60;99.90;;;;;;6314106;22;20439;-86
2022/11/20 13:25:40;;;;;;;18.00;10.40;;;2.50;99.90;;;;;;6278920;22;20015;-86
2022/11/20 13:28:30;;;;;;;18.30;9.87;;;2.20;99.90;;;;;;6281223;22;20023;-86
2022/11/20 13:30:58;;;;;;;18.27;10.10;;;3.50;99.90;;;;;;6252818;22;20019;-86
2022/11/20 13:33:35;;;;;;;18.33;9.60;;;3.20;99.90;;;;;;6261550;22;20065;-86
2022/11/20 13:36:53;;;;;;;18.47;10.30;;;3.40;99.90;;;;;;6250936;22;20022;-86
2022/11/20 13:39:30;;;;;;;19.03;11.27;;;2.50;99.90;;;;;;6070266;23;20114;-86
2022/11/20 13:42:11;;;;;;;18.13;10.63;;;2.50;99.90;;;;;;6094732;23;20423;-86
2022/11/20 13:44:55;;;;;;;18.07;10.57;;;2.20;99.90;;;;;;6094372;23;20081;-85
2022/11/20 13:50:52;;;;;;;18.80;10.83;;;2.20;99.90;;;;;;6306919;22;20011;-87
2022/11/20 13:54:03;;;;;;;18.73;11.00;;;2.10;99.90;;;;;;6228293;22;20034;-86
2022/11/20 13:57:19;;;;;;;18.00;10.97;;;2.00;99.90;;;;;;6280342;22;20042;-86
2022/11/20 14:00:31;;;;;;;19.03;11.30;;;2.30;99.90;;;;;;6277511;22;20011;-86
2022/11/20 14:03:23;;;;;;;20.43;12.80;;;2.00;99.90;;;;;;6306484;22;20327;-85
2022/11/20 14:06:41;;;;;;;20.63;11.40;;;1.80;99.90;;;;;;6305317;22;20766;-84
2022/11/20 14:09:46;;;;;;;21.20;12.50;;;1.90;99.90;;;;;;6308340;22;20023;-84
2022/11/20 14:12:33;;;;;;;19.53;11.13;;;2.70;99.90;;;;;;6278738;22;20394;-85
2022/11/20 14:15:40;;;;;;;21.03;12.00;;;2.00;99.90;;;;;;6306202;22;20102;-85
2022/11/20 14:18:21;;;;;;;21.17;11.60;;;1.90;99.90;;;;;;6305682;22;20051;-84
2022/11/20 14:21:03;;;;;;;20.70;12.10;;;2.00;99.90;;;;;;6306274;22;20019;-84
2022/11/20 14:23:52;;;;;;;20.63;12.30;;;1.70;99.90;;;;;;6278139;22;20014;-84
2022/11/20 14:26:27;;;;;;;21.87;12.27;;;2.20;99.90;;;;;;6271046;22;20026;-84
2022/11/20 14:29:02;;;;;;;24.83;13.23;;;1.40;99.90;;;;;;6277886;22;20011;-85
2022/11/20 14:31:53;;;;;;;22.33;12.73;;;2.00;99.90;;;;;;6278968;22;20216;-84
2022/11/20 14:34:24;;;;;;;22.00;12.07;;;1.60;99.90;;;;;;6305637;22;20090;-85
2022/11/20 14:37:11;;;;;;;21.70;12.50;;;2.20;99.90;;;;;;6277267;22;20007;-84
2022/11/20 14:39:55;;;;;;;21.23;12.60;;;1.10;99.90;;;;;;6305624;22;20015;-84
2022/11/20 14:42:30;;;;;;;21.60;12.97;;;1.40;99.90;;;;;;6304975;22;20019;-85
2022/11/20 14:45:03;;;;;;;21.23;12.07;;;1.60;99.90;;;;;;6306794;22;20011;-84
2022/11/20 14:47:44;;;;;;;20.53;13.13;;;1.30;99.90;;;;;;6278339;22;20022;-85
2022/11/20 14:51:15;;;;;;;18.93;11.83;;;2.10;99.90;;;;;;6305119;22;20324;-84
2022/11/20 14:53:41;;;;;;;21.60;13.00;;;1.60;99.90;;;;;;6281592;22;20029;-86
2022/11/20 14:56:24;;;;;;;22.20;14.43;;;1.40;99.90;;;;;;6307329;22;20455;-85
2022/11/20 14:58:58;;;;;;;22.40;13.00;;;1.00;99.90;;;;;;6312608;22;20011;-85
2022/11/20 15:01:32;;;;;;;22.77;13.53;;;1.30;99.90;;;;;;6281703;22;20022;-85
2022/11/20 15:04:26;;;;;;;22.45;13.43;;;1.10;99.90;;;;;;6277978;22;20026;-85
2022/11/20 15:07:24;;;;;;;22.65;13.70;;;0.10;99.90;;;;;;6277406;22;20477;-84
2022/11/20 15:10:24;;;;;;;25.00;14.00;;;2.40;99.90;;;;;;6304403;22;20015;-85
2022/11/20 15:12:52;;;;;;;24.03;14.57;;;1.00;99.90;;;;;;6304939;22;20026;-85
2022/11/20 15:16:08;;;;;;;21.97;13.73;;;0.40;99.90;;;;;;6278405;22;20011;-84
2022/11/20 15:18:56;;;;;;;21.60;13.53;;;1.10;99.90;;;;;;6276331;22;20019;-84
2022/11/20 15:22:16;;;;;;;24.53;13.93;;;1.60;99.90;;;;;;6306266;22;20011;-88
2022/11/20 15:25:49;;;;;;;22.90;13.40;;;1.80;99.90;;;;;;6276857;22;20011;-86
2022/11/20 15:28:41;;;;;;;22.33;13.83;;;1.30;99.90;;;;;;6306569;22;20023;-87
2022/11/20 15:31:28;;;;;;;22.77;13.43;;;1.00;99.90;;;;;;6303771;22;20086;-86
2022/11/20 15:33:54;;;;;;;22.53;13.73;;;0.70;99.90;;;;;;6273812;22;20523;-87
2022/11/20 15:36:29;;;;;;;23.73;14.07;;;1.80;99.90;;;;;;6247551;22;20069;-87
2022/11/20 15:40:04;;;;;;;25.13;14.80;;;0.50;99.90;;;;;;6285948;22;20043;-87
2022/11/20 15:45:56;;;;;;;24.17;14.63;;;1.10;99.90;;;;;;6304900;22;20027;-86
2022/11/20 15:48:52;;;;;;;24.73;15.17;;;0.90;99.90;;;;;;6278288;22;20076;-87
2022/11/20 15:51:53;;;;;;;23.33;14.00;;;0.90;99.90;;;;;;6278478;22;20019;-86
2022/11/20 15:54:34;;;;;;;22.80;14.30;;;0.90;99.90;;;;;;6314282;22;20057;-87
2022/11/20 15:57:03;;;;;;;24.13;14.03;;;0.70;99.90;;;;;;6278514;22;20105;-87
2022/11/20 15:59:28;;;;;;;25.30;15.00;;;2.20;99.90;;;;;;6299327;22;20016;-89
2022/11/20 16:21:37;;;;;;;23.37;14.50;;;1.10;99.90;;;;;;6212028;22;20003;-88
2022/11/20 16:29:32;;;;;;;25.83;15.60;;;0.70;99.90;;;;;;6233414;23;20030;-89
2022/11/20 16:31:57;;;;;;;25.13;15.37;;;0.30;99.90;;;;;;6202259;23;20052;-89
2022/11/20 16:34:29;;;;;;;26.67;16.00;;;2.20;99.90;;;;;;6220189;23;20017;-89
2022/11/20 16:37:26;;;;;;;29.23;17.03;;;0.60;99.90;;;;;;6219506;23;20467;-89
2022/11/20 16:49:57;;;;;;;26.57;15.83;;;0.00;99.90;;;;;;6283617;22;20484;-90
2022/11/20 16:52:46;;;;;;;29.27;16.37;;;0.60;99.90;;;;;;6301822;22;20038;-90
2022/11/20 16:55:15;;;;;;;26.47;15.87;;;0.60;99.90;;;;;;6285431;22;20022;-90
2022/11/20 16:58:13;;;;;;;29.93;16.77;;;0.90;99.90;;;;;;6282467;22;20436;-90
2022/11/20 17:00:40;;;;;;;27.57;15.87;;;-0.70;99.90;;;;;;6309712;22;20015;-85
2022/11/20 19:05:56;;;;;;;28.70;16.57;;;0.30;99.90;;;;;;6304049;22;20138;-85
2022/11/20 19:23:17;;;;;;;31.93;17.57;;;-0.10;99.90;;;;;;6306317;22;20022;-85
2022/11/20 20:13:05;;;;;;;32.27;16.97;;;0.50;99.90;;;;;;6148505;23;20020;-87
